Time;durP1;ratioP1;P1;durP2;ratioP2;P2;SDS_P1;SDS_P2;PMS_P1;PMS_P2;Temp;Humidity;BMP_temperature;BMP_pressure;BME280_temperature;BME280_humidity;BME280_pressure;Samples;Min_cycle;Max_cycle;Signal;HPM_P1;HPM_P2
2023/12/12 00:00:46;;;;;;;39.17;22.77;;;;;;;4.84;100.00;99748.38;1455878;90;21450;-78
2023/12/12 00:03:12;;;;;;;38.37;23.37;;;;;;;4.82;100.00;99754.70;1448416;89;21538;-78
2023/12/12 00:05:38;;;;;;;36.80;21.13;;;;;;;4.85;100.00;99744.78;1444189;90;22241;-78
2023/12/12 00:08:05;;;;;;;39.93;23.00;;;;;;;4.82;100.00;99744.22;1448387;90;21338;-77
2023/12/12 00:10:31;;;;;;;35.07;21.73;;;;;;;4.82;100.00;99750.28;1453424;88;21421;-78
2023/12/12 00:12:57;;;;;;;38.47;23.37;;;;;;;4.83;100.00;99738.83;1446487;89;21957;-78
2023/12/12 00:15:24;;;;;;;31.07;20.37;;;;;;;4.81;100.00;99732.91;1454029;88;21369;-78
2023/12/12 00:17:50;;;;;;;36.73;22.30;;;;;;;4.83;100.00;99746.69;1449361;90;21382;-78
2023/12/12 00:20:16;;;;;;;39.87;23.20;;;;;;;4.83;100.00;99765.05;1451825;89;22232;-78
2023/12/12 00:22:42;;;;;;;41.00;25.00;;;;;;;4.85;100.00;99765.77;1452808;89;21442;-78
2023/12/12 00:25:08;;;;;;;41.13;22.93;;;;;;;4.87;100.00;99752.54;1446266;90;22479;-77
2023/12/12 00:27:34;;;;;;;35.20;20.17;;;;;;;4.88;100.00;99743.22;1456981;89;21383;-77
2023/12/12 00:30:01;;;;;;;33.40;22.50;;;;;;;4.88;100.00;99755.50;1447002;89;21398;-77
2023/12/12 00:32:27;;;;;;;40.93;24.40;;;;;;;4.89;100.00;99756.70;1450854;90;21765;-77
2023/12/12 00:34:53;;;;;;;32.00;22.13;;;;;;;4.85;100.00;99757.89;1454334;88;21405;-78
2023/12/12 00:37:19;;;;;;;39.10;24.27;;;;;;;4.86;100.00;99766.59;1417742;89;21663;-77
2023/12/12 00:39:45;;;;;;;43.17;24.60;;;;;;;4.85;100.00;99768.38;1445632;90;21434;-78
2023/12/12 00:42:12;;;;;;;44.50;24.00;;;;;;;4.86;100.00;99768.75;1459992;89;21589;-78
2023/12/12 00:44:38;;;;;;;42.27;24.73;;;;;;;4.86;100.00;99770.06;1453449;89;22424;-78
2023/12/12 00:47:05;;;;;;;33.73;23.27;;;;;;;4.87;100.00;99796.63;1452092;89;21376;-79
2023/12/12 00:49:31;;;;;;;39.13;23.90;;;;;;;4.89;100.00;99797.34;1455949;89;21383;-79
2023/12/12 00:51:57;;;;;;;38.63;25.00;;;;;;;4.90;100.00;99800.80;1446621;89;22432;-78
2023/12/12 00:54:23;;;;;;;42.53;24.93;;;;;;;4.90;100.00;99786.38;1455993;89;21337;-78
2023/12/12 00:56:50;;;;;;;44.00;24.53;;;;;;;4.88;100.00;99783.86;1457417;89;21434;-79
2023/12/12 00:59:16;;;;;;;44.63;25.67;;;;;;;4.89;100.00;99793.86;1451115;89;22314;-78
2023/12/12 01:01:42;;;;;;;43.83;25.97;;;;;;;4.87;100.00;99776.96;1446048;90;21442;-77
2023/12/12 01:04:09;;;;;;;51.47;24.63;;;;;;;4.86;100.00;99781.86;1453899;89;21796;-78
2023/12/12 01:06:35;;;;;;;41.93;24.97;;;;;;;4.87;100.00;99770.41;1451065;89;21546;-77
2023/12/12 01:09:02;;;;;;;40.40;23.47;;;;;;;4.88;100.00;99748.95;1443945;89;21404;-78
2023/12/12 01:11:28;;;;;;;42.83;23.83;;;;;;;4.88;100.00;99765.50;1453455;89;21442;-79
2023/12/12 01:13:55;;;;;;;43.57;23.43;;;;;;;4.87;100.00;99755.98;1451384;90;21552;-77
2023/12/12 01:16:21;;;;;;;40.27;24.90;;;;;;;4.87;100.00;99746.81;1449580;90;22358;-78
2023/12/12 01:18:47;;;;;;;45.63;23.93;;;;;;;4.87;100.00;99742.87;1443015;90;21411;-78
2023/12/12 01:21:13;;;;;;;37.87;23.97;;;;;;;4.87;100.00;99744.19;1453295;89;21464;-78
2023/12/12 01:23:55;;;;;;;41.20;24.70;;;;;;;4.87;100.00;99750.73;1452434;89;21468;-77
2023/12/12 01:26:23;;;;;;;41.87;25.83;;;;;;;4.88;100.00;99757.64;1442314;89;21544;-77
2023/12/12 01:28:50;;;;;;;37.57;24.67;;;;;;;4.88;100.00;99756.33;1432443;89;21397;-78
2023/12/12 01:31:18;;;;;;;39.53;22.40;;;;;;;4.90;100.00;99752.28;1447750;89;22517;-78
2023/12/12 01:33:45;;;;;;;33.23;22.33;;;;;;;4.90;100.00;99742.62;1450067;89;21324;-78
2023/12/12 01:36:11;;;;;;;38.70;23.57;;;;;;;4.90;100.00;99742.62;1452045;89;22239;-78
2023/12/12 01:38:38;;;;;;;43.90;24.83;;;;;;;4.88;100.00;99735.84;1450957;88;21514;-78
2023/12/12 01:41:05;;;;;;;46.37;25.00;;;;;;;4.89;100.00;99729.62;1455318;89;21375;-78
2023/12/12 01:43:33;;;;;;;44.40;27.00;;;;;;;4.85;100.00;99734.30;1457088;89;21354;-79
2023/12/12 01:46:02;;;;;;;41.20;24.40;;;;;;;4.87;100.00;99738.95;1450990;89;22321;-78
2023/12/12 01:48:30;;;;;;;42.47;23.53;;;;;;;4.88;100.00;99730.59;1456243;88;21353;-79
2023/12/12 01:50:57;;;;;;;43.00;25.10;;;;;;;4.89;100.00;99733.09;1447500;89;22106;-79
2023/12/12 01:53:34;;;;;;;37.50;23.23;;;;;;;4.88;100.00;99726.17;1450151;90;21358;-78
2023/12/12 01:56:02;;;;;;;36.30;23.83;;;;;;;4.89;100.00;99725.69;1453600;89;21597;-78
2023/12/12 01:58:28;;;;;;;39.97;25.03;;;;;;;4.89;100.00;99730.94;1440822;89;21537;-78
2023/12/12 02:00:56;;;;;;;45.27;26.10;;;;;;;4.87;100.00;99731.08;1439292;89;21360;-78
2023/12/12 02:03:24;;;;;;;36.87;21.53;;;;;;;4.90;100.00;99729.99;1449847;89;21589;-79
2023/12/12 02:05:51;;;;;;;38.50;24.33;;;;;;;4.87;100.00;99721.90;1450501;89;21383;-79
2023/12/12 02:08:17;;;;;;;42.17;25.80;;;;;;;4.90;100.00;99722.95;1448535;89;22292;-79
2023/12/12 02:10:44;;;;;;;42.80;26.17;;;;;;;4.88;100.00;99720.92;1445188;90;21383;-79
2023/12/12 02:13:10;;;;;;;41.60;24.57;;;;;;;4.90;100.00;99725.58;1449381;90;21560;-79
2023/12/12 02:15:37;;;;;;;42.37;25.77;;;;;;;4.91;100.00;99725.91;1455634;90;21427;-79
2023/12/12 02:18:03;;;;;;;42.23;24.50;;;;;;;4.92;100.00;99723.66;1456396;90;21366;-80
2023/12/12 02:20:29;;;;;;;42.73;26.63;;;;;;;4.93;100.00;99721.38;1460272;89;21434;-80
2023/12/12 02:22:56;;;;;;;39.60;24.33;;;;;;;4.94;100.00;99726.14;1440112;89;22298;-79
2023/12/12 02:25:22;;;;;;;37.83;24.83;;;;;;;4.94;100.00;99730.91;1448194;89;21354;-79
2023/12/12 02:27:48;;;;;;;46.50;27.13;;;;;;;4.96;100.00;99730.30;1443693;88;21428;-80
2023/12/12 02:30:16;;;;;;;40.17;24.80;;;;;;;4.96;100.00;99734.23;1448397;90;21575;-80
2023/12/12 02:32:42;;;;;;;43.07;25.20;;;;;;;4.98;100.00;99728.88;1445446;90;21523;-79
2023/12/12 02:35:08;;;;;;;38.87;23.17;;;;;;;4.97;100.00;99734.58;1453411;89;22344;-79
2023/12/12 02:37:35;;;;;;;43.77;24.87;;;;;;;4.98;100.00;99732.81;1452276;89;21552;-78
2023/12/12 02:40:01;;;;;;;40.17;23.93;;;;;;;4.95;100.00;99729.96;1443977;89;21413;-79
2023/12/12 02:42:27;;;;;;;36.30;23.90;;;;;;;4.96;100.00;99725.05;1446917;89;21508;-79
2023/12/12 02:44:55;;;;;;;42.70;25.50;;;;;;;4.97;100.00;99728.02;1449199;89;21398;-78
2023/12/12 02:47:22;;;;;;;41.43;26.10;;;;;;;4.98;100.00;99725.77;1459490;89;21369;-78
2023/12/12 02:49:49;;;;;;;40.67;25.33;;;;;;;4.94;100.00;99726.97;1452667;89;21427;-78
2023/12/12 02:52:16;;;;;;;44.23;26.97;;;;;;;4.94;100.00;99717.78;1452914;89;21512;-78
2023/12/12 02:54:43;;;;;;;42.37;26.23;;;;;;;4.93;100.00;99724.49;1453527;89;22344;-78
2023/12/12 02:57:09;;;;;;;38.67;26.80;;;;;;;4.94;100.00;99730.08;1454136;89;21494;-78
2023/12/12 02:59:35;;;;;;;44.40;25.97;;;;;;;4.94;100.00;99730.91;1455161;89;21450;-78
2023/12/12 03:02:01;;;;;;;42.53;26.50;;;;;;;4.96;100.00;99736.86;1443930;90;21353;-77
2023/12/12 03:04:27;;;;;;;42.50;28.37;;;;;;;4.97;100.00;99731.95;1451872;89;21361;-77
2023/12/12 03:06:53;;;;;;;45.57;29.27;;;;;;;4.99;100.00;99738.39;1451952;89;21405;-78
2023/12/12 03:09:20;;;;;;;45.07;29.33;;;;;;;5.00;100.00;99745.78;1442259;90;21316;-78
2023/12/12 03:11:46;;;;;;;47.97;31.73;;;;;;;4.97;100.00;99742.44;1438268;90;21486;-78
2023/12/12 03:14:12;;;;;;;44.03;28.67;;;;;;;4.93;100.00;99748.91;1458903;89;21456;-78
2023/12/12 03:16:38;;;;;;;58.80;31.23;;;;;;;4.93;100.00;99746.78;1451036;90;22566;-77
2023/12/12 03:19:04;;;;;;;46.73;28.47;;;;;;;4.91;100.00;99744.27;1458585;90;21390;-77
2023/12/12 03:21:31;;;;;;;46.43;29.83;;;;;;;4.92;100.00;99744.64;1446140;89;21368;-76
2023/12/12 03:23:58;;;;;;;47.80;29.63;;;;;;;4.91;100.00;99740.34;1455482;89;21345;-77
2023/12/12 03:26:24;;;;;;;45.90;30.87;;;;;;;4.90;100.00;99740.48;1443040;89;22292;-78
2023/12/12 03:28:50;;;;;;;42.13;25.23;;;;;;;4.88;100.00;99726.17;1455487;89;21391;-77
2023/12/12 03:31:16;;;;;;;51.90;30.73;;;;;;;4.86;100.00;99724.64;1450270;89;21515;-77
2023/12/12 03:33:42;;;;;;;48.23;27.23;;;;;;;4.84;100.00;99724.78;1452627;89;21523;-78
2023/12/12 03:36:09;;;;;;;44.53;25.73;;;;;;;4.80;100.00;99722.05;1452052;89;22426;-77
2023/12/12 03:38:35;;;;;;;39.97;24.70;;;;;;;4.80;100.00;99729.08;1451527;89;21353;-78
2023/12/12 03:41:02;;;;;;;44.07;26.87;;;;;;;4.74;100.00;99723.87;1450287;89;21884;-78
2023/12/12 03:43:28;;;;;;;49.10;27.67;;;;;;;4.74;100.00;99731.73;1455158;89;21472;-78
2023/12/12 03:45:54;;;;;;;43.93;27.37;;;;;;;4.73;100.00;99728.77;1453669;89;21316;-78
2023/12/12 03:48:23;;;;;;;49.70;29.23;;;;;;;4.74;100.00;99729.11;1455894;89;21362;-78
2023/12/12 03:50:49;;;;;;;45.43;27.90;;;;;;;4.74;100.00;99731.73;1446990;89;21508;-78
2023/12/12 03:53:16;;;;;;;46.97;27.40;;;;;;;4.74;100.00;99723.87;1451234;90;21331;-78
2023/12/12 03:55:42;;;;;;;47.20;31.13;;;;;;;4.72;100.00;99727.95;1454925;89;21464;-77
2023/12/12 03:58:08;;;;;;;47.93;29.27;;;;;;;4.75;100.00;99725.55;1459061;89;21426;-78
2023/12/12 04:00:34;;;;;;;56.70;29.87;;;;;;;4.73;100.00;99726.97;1448225;89;21429;-78
2023/12/12 04:03:01;;;;;;;44.50;27.60;;;;;;;4.72;100.00;99736.30;1454849;90;21420;-78
2023/12/12 04:05:27;;;;;;;52.50;31.70;;;;;;;4.70;100.00;99736.41;1449802;90;21633;-79
2023/12/12 04:07:53;;;;;;;52.27;32.00;;;;;;;4.71;100.00;99739.85;1460330;89;21405;-78
2023/12/12 04:10:20;;;;;;;52.43;32.27;;;;;;;4.69;100.00;99729.97;1450537;89;21569;-78
2023/12/12 04:12:46;;;;;;;51.40;29.83;;;;;;;4.70;100.00;99725.09;1458539;89;21346;-79
2023/12/12 04:15:12;;;;;;;49.03;30.13;;;;;;;4.73;100.00;99732.70;1450906;89;21524;-78
2023/12/12 04:17:38;;;;;;;50.87;31.50;;;;;;;4.72;100.00;99736.30;1452385;89;22160;-78
2023/12/12 04:20:07;;;;;;;50.60;31.83;;;;;;;4.72;100.00;99746.78;1460697;89;21383;-78
2023/12/12 04:22:33;;;;;;;58.37;31.77;;;;;;;4.70;100.00;99742.96;1451471;90;21228;-78
2023/12/12 04:25:00;;;;;;;50.80;30.03;;;;;;;4.67;100.00;99747.14;1458131;90;21375;-79
2023/12/12 04:27:26;;;;;;;50.40;30.23;;;;;;;4.66;100.00;99755.98;1454658;89;21442;-79
2023/12/12 04:29:52;;;;;;;45.77;28.43;;;;;;;4.63;100.00;99752.75;1464249;89;22414;-79
2023/12/12 04:32:18;;;;;;;46.43;27.87;;;;;;;4.63;100.00;99758.00;1460727;89;21472;-79
2023/12/12 04:34:45;;;;;;;45.30;29.07;;;;;;;4.62;100.00;99756.34;1454395;90;21375;-79
2023/12/12 04:37:11;;;;;;;57.90;33.00;;;;;;;4.62;100.00;99762.41;1443331;90;22270;-79
2023/12/12 04:39:38;;;;;;;44.97;28.20;;;;;;;4.61;100.00;99767.80;1453577;90;21383;-79
2023/12/12 04:42:04;;;;;;;47.50;29.50;;;;;;;4.60;100.00;99770.05;1453770;90;22849;-79
2023/12/12 04:44:31;;;;;;;55.60;32.93;;;;;;;4.57;100.00;99772.92;1450580;89;21590;-79
2023/12/12 04:46:57;;;;;;;50.70;32.23;;;;;;;4.56;100.00;99772.58;1451159;90;21339;-79
2023/12/12 04:49:23;;;;;;;58.03;33.20;;;;;;;4.57;100.00;99774.23;1445580;90;22173;-78
2023/12/12 04:51:49;;;;;;;59.13;35.07;;;;;;;4.55;100.00;99787.95;1449818;90;21449;-79
2023/12/12 04:54:15;;;;;;;60.50;36.83;;;;;;;4.56;100.00;99786.98;1459813;90;21361;-79
2023/12/12 04:56:41;;;;;;;72.13;38.53;;;;;;;4.55;100.00;99789.27;1453913;89;22271;-79
2023/12/12 04:59:08;;;;;;;57.20;31.40;;;;;;;4.53;100.00;99789.38;1450938;90;21302;-79
2023/12/12 05:01:34;;;;;;;60.67;33.53;;;;;;;4.52;100.00;99790.34;1442097;90;21427;-79
2023/12/12 05:04:00;;;;;;;55.60;34.27;;;;;;;4.48;100.00;99776.63;1452704;90;21397;-78
2023/12/12 05:06:26;;;;;;;61.77;33.40;;;;;;;4.46;100.00;99771.16;1453576;89;22322;-79
2023/12/12 05:08:53;;;;;;;62.10;35.40;;;;;;;4.46;100.00;99783.81;1440277;90;21472;-79
2023/12/12 05:11:19;;;;;;;57.13;32.40;;;;;;;4.49;100.00;99791.42;1459973;90;21382;-79
2023/12/12 05:13:46;;;;;;;56.53;34.40;;;;;;;4.53;100.00;99799.38;1457560;90;21405;-78
2023/12/12 05:16:13;;;;;;;52.30;32.10;;;;;;;4.50;100.00;99794.38;1444022;90;22481;-78
2023/12/12 05:18:39;;;;;;;55.03;31.87;;;;;;;4.51;100.00;99799.97;1441072;90;21352;-78
2023/12/12 05:21:05;;;;;;;52.60;31.67;;;;;;;4.50;100.00;99797.00;1448031;90;21250;-78
2023/12/12 05:23:31;;;;;;;53.73;34.50;;;;;;;4.49;100.00;99804.52;1453682;90;21309;-78
2023/12/12 05:25:57;;;;;;;53.23;32.00;;;;;;;4.45;100.00;99808.33;1450319;90;21368;-77
2023/12/12 05:28:23;;;;;;;48.47;28.47;;;;;;;4.42;100.00;99802.03;1458907;90;21516;-78
2023/12/12 05:30:50;;;;;;;64.03;35.07;;;;;;;4.40;100.00;99808.34;1454387;88;21464;-78
2023/12/12 05:33:16;;;;;;;53.57;35.43;;;;;;;4.36;100.00;99802.52;1459588;90;21596;-77
2023/12/12 05:35:42;;;;;;;59.67;34.20;;;;;;;4.33;100.00;99805.88;1451266;90;21405;-78
2023/12/12 05:38:08;;;;;;;61.77;36.80;;;;;;;4.32;100.00;99807.66;1448277;90;21331;-77
2023/12/12 05:40:35;;;;;;;58.13;36.93;;;;;;;4.34;100.00;99804.42;1451912;90;21389;-77
2023/12/12 05:43:01;;;;;;;55.97;34.47;;;;;;;4.38;100.00;99805.03;1462667;90;21288;-78
2023/12/12 05:45:28;;;;;;;61.60;36.67;;;;;;;4.40;100.00;99811.82;1447841;90;22016;-77
2023/12/12 05:47:54;;;;;;;57.00;33.07;;;;;;;4.39;100.00;99804.89;1454018;90;21457;-77
2023/12/12 05:50:20;;;;;;;53.27;34.00;;;;;;;4.40;100.00;99807.03;1466164;90;22189;-77
2023/12/12 05:52:46;;;;;;;62.63;37.63;;;;;;;4.36;100.00;99810.87;1444645;90;21544;-77
2023/12/12 05:55:13;;;;;;;59.63;36.27;;;;;;;4.31;100.00;99800.74;1451120;89;21817;-78
2023/12/12 05:57:39;;;;;;;61.40;36.10;;;;;;;4.28;100.00;99798.37;1452040;89;21538;-77
2023/12/12 06:00:07;;;;;;;64.63;34.50;;;;;;;4.29;100.00;99807.91;1446106;90;22248;-77
2023/12/12 06:02:34;;;;;;;57.23;35.97;;;;;;;4.28;100.00;99800.98;1445528;90;21353;-77
2023/12/12 06:05:00;;;;;;;65.03;35.00;;;;;;;4.26;100.00;99808.16;1453443;90;22733;-76
2023/12/12 06:07:26;;;;;;;60.00;38.63;;;;;;;4.24;100.00;99812.68;1454309;90;22413;-77
2023/12/12 06:09:53;;;;;;;59.03;37.83;;;;;;;4.21;100.00;99809.83;1451693;90;21449;-77
2023/12/12 06:12:20;;;;;;;63.37;36.37;;;;;;;4.19;100.00;99812.20;1447656;90;21413;-77
2023/12/12 06:14:46;;;;;;;65.90;37.40;;;;;;;4.19;100.00;99818.75;1445390;90;21450;-76
2023/12/12 06:17:12;;;;;;;60.00;37.33;;;;;;;4.17;100.00;99816.72;1448747;90;21389;-77
2023/12/12 06:19:39;;;;;;;54.30;34.83;;;;;;;4.19;100.00;99822.69;1457721;90;21654;-76
2023/12/12 06:22:06;;;;;;;60.33;35.73;;;;;;;4.18;100.00;99834.13;1457705;90;21433;-77
2023/12/12 06:24:32;;;;;;;62.23;37.60;;;;;;;4.19;100.00;99835.78;1442992;90;21405;-77
2023/12/12 06:26:58;;;;;;;63.80;38.10;;;;;;;4.17;100.00;99838.98;1454229;90;21443;-77
2023/12/12 06:29:25;;;;;;;62.33;38.87;;;;;;;4.16;100.00;99847.33;1452092;90;22204;-77
2023/12/12 06:31:51;;;;;;;65.30;35.53;;;;;;;4.15;100.00;99862.70;1447927;90;21693;-76
2023/12/12 06:34:18;;;;;;;58.73;34.00;;;;;;;4.11;100.00;99861.73;1450444;90;21419;-77
2023/12/12 06:36:44;;;;;;;58.93;34.30;;;;;;;4.10;100.00;99860.08;1453911;90;21295;-78
2023/12/12 06:39:10;;;;;;;57.80;33.97;;;;;;;4.09;100.00;99850.09;1452085;90;21323;-76
2023/12/12 06:41:37;;;;;;;60.47;34.60;;;;;;;4.14;100.00;99864.11;1454816;90;21354;-77
2023/12/12 06:44:04;;;;;;;61.70;36.70;;;;;;;4.14;100.00;99859.70;1451590;88;21516;-76
2023/12/12 06:46:30;;;;;;;56.33;35.83;;;;;;;4.16;100.00;99865.66;1459873;90;21375;-77
2023/12/12 06:48:57;;;;;;;63.33;36.70;;;;;;;4.19;100.00;99864.11;1453944;90;22262;-77
2023/12/12 06:51:24;;;;;;;60.63;34.47;;;;;;;4.22;100.00;99861.73;1452375;90;21353;-77
2023/12/12 06:53:52;;;;;;;51.07;30.30;;;;;;;4.23;100.00;99864.69;1450510;90;22197;-77
2023/12/12 06:56:21;;;;;;;55.03;34.13;;;;;;;4.22;100.00;99878.27;1452561;88;21427;-76
2023/12/12 06:58:47;;;;;;;61.00;36.80;;;;;;;4.22;100.00;99874.83;1455469;89;21368;-77
2023/12/12 07:01:13;;;;;;;62.07;34.87;;;;;;;4.23;100.00;99876.48;1450321;90;22285;-78
2023/12/12 07:03:39;;;;;;;66.20;37.70;;;;;;;4.21;100.00;99866.14;1456051;90;21382;-78
2023/12/12 07:06:06;;;;;;;62.77;37.87;;;;;;;4.21;100.00;99866.63;1452667;90;21441;-78
2023/12/12 07:08:32;;;;;;;61.97;35.87;;;;;;;4.20;100.00;99866.25;1458777;90;21471;-77
2023/12/12 07:10:58;;;;;;;75.77;38.77;;;;;;;4.18;100.00;99859.01;1451506;90;22262;-77
2023/12/12 07:13:25;;;;;;;61.97;37.60;;;;;;;4.20;100.00;99870.17;1452055;90;21420;-77
2023/12/12 07:15:51;;;;;;;73.80;41.50;;;;;;;4.20;100.00;99876.72;1457621;90;21383;-76
2023/12/12 07:18:19;;;;;;;61.53;38.47;;;;;;;4.22;100.00;99873.52;1451719;90;21545;-77
2023/12/12 07:20:46;;;;;;;78.03;44.90;;;;;;;4.18;100.00;99872.10;1460199;90;21339;-76
2023/12/12 07:23:13;;;;;;;84.53;44.57;;;;;;;4.16;100.00;99878.76;1453929;90;21419;-77
2023/12/12 07:25:39;;;;;;;74.67;41.73;;;;;;;4.16;100.00;99883.17;1461204;88;21361;-78
2023/12/12 07:28:06;;;;;;;59.30;36.03;;;;;;;4.15;100.00;99889.38;1462417;90;21530;-78
2023/12/12 07:30:32;;;;;;;61.47;35.40;;;;;;;4.11;100.00;99890.55;1454035;90;21427;-78
2023/12/12 07:32:58;;;;;;;71.33;37.80;;;;;;;4.07;100.00;99902.57;1456536;88;21561;-78
2023/12/12 07:35:25;;;;;;;64.40;38.57;;;;;;;4.04;100.00;99904.12;1447842;89;21559;-78
2023/12/12 07:37:51;;;;;;;68.40;39.57;;;;;;;4.03;100.00;99911.63;1454223;89;21523;-78
2023/12/12 07:40:17;;;;;;;62.87;39.80;;;;;;;4.00;100.00;99910.55;1449679;90;21323;-77
2023/12/12 07:42:45;;;;;;;60.53;36.43;;;;;;;3.99;100.00;99914.11;1445359;89;22212;-77
2023/12/12 07:45:12;;;;;;;68.97;40.53;;;;;;;4.01;100.00;99918.76;1449960;89;21619;-77
2023/12/12 07:47:38;;;;;;;61.87;37.20;;;;;;;3.98;100.00;99921.61;1453188;89;21405;-78
2023/12/12 07:50:07;;;;;;;73.97;43.30;;;;;;;3.96;100.00;99927.44;1452677;90;22439;-78
2023/12/12 07:52:33;;;;;;;90.27;51.20;;;;;;;3.93;100.00;99927.67;1450810;89;21419;-77
2023/12/12 07:54:59;;;;;;;79.97;44.30;;;;;;;3.93;100.00;99932.08;1459164;88;21412;-77
2023/12/12 07:57:25;;;;;;;70.27;39.77;;;;;;;3.94;100.00;99931.98;1441767;89;21518;-78
2023/12/12 07:59:51;;;;;;;68.73;42.27;;;;;;;3.92;100.00;99930.42;1444005;89;21399;-78
2023/12/12 08:02:17;;;;;;;69.90;42.67;;;;;;;3.89;100.00;99927.56;1450363;89;21464;-77
2023/12/12 08:04:43;;;;;;;78.07;43.27;;;;;;;3.89;100.00;99928.88;1458391;89;21301;-78
2023/12/12 08:07:10;;;;;;;70.63;40.10;;;;;;;3.90;100.00;99923.98;1452914;90;21584;-78
2023/12/12 08:09:36;;;;;;;68.70;40.27;;;;;;;3.89;100.00;99926.25;1451752;89;21354;-78
2023/12/12 08:12:03;;;;;;;69.73;39.50;;;;;;;3.88;100.00;99932.42;1460441;89;21574;-78
2023/12/12 08:14:30;;;;;;;78.20;42.03;;;;;;;3.87;100.00;99924.22;1453507;89;22271;-77
2023/12/12 08:16:56;;;;;;;70.57;38.17;;;;;;;3.86;100.00;99939.58;1451856;90;21487;-78
2023/12/12 08:19:22;;;;;;;75.10;40.97;;;;;;;3.83;100.00;99933.27;1457685;89;21427;-78
2023/12/12 08:21:49;;;;;;;63.97;36.57;;;;;;;3.85;100.00;99930.03;1445976;89;21391;-78
2023/12/12 08:24:16;;;;;;;72.73;40.63;;;;;;;3.83;100.00;99928.86;1460762;89;21338;-78
2023/12/12 08:26:46;;;;;;;79.73;43.03;;;;;;;3.81;100.00;99931.23;1450056;89;21472;-78
2023/12/12 08:29:15;;;;;;;71.90;40.23;;;;;;;3.73;100.00;99939.66;1446392;89;21375;-78
2023/12/12 08:31:42;;;;;;;72.27;41.10;;;;;;;3.71;100.00;99936.34;1438251;90;21344;-77
2023/12/12 08:34:08;;;;;;;64.67;38.10;;;;;;;3.69;100.00;99934.78;1452954;88;21600;-77
2023/12/12 08:36:35;;;;;;;70.33;39.10;;;;;;;3.70;100.00;99933.34;1453162;90;21427;-78
2023/12/12 08:39:01;;;;;;;64.53;36.67;;;;;;;3.69;100.00;99934.78;1456493;90;22322;-78
2023/12/12 08:41:30;;;;;;;61.40;35.37;;;;;;;3.72;100.00;99929.31;1444555;90;21534;-77
2023/12/12 08:44:00;;;;;;;54.50;31.73;;;;;;;3.77;100.00;99932.39;1462071;89;21383;-77
2023/12/12 08:46:27;;;;;;;59.30;34.03;;;;;;;3.79;100.00;99936.56;1442728;89;22227;-77
2023/12/12 08:48:55;;;;;;;67.57;36.10;;;;;;;3.84;100.00;99938.37;1451714;89;21683;-77
2023/12/12 08:51:23;;;;;;;56.07;33.13;;;;;;;3.92;100.00;99935.18;1453386;89;21869;-78
2023/12/12 08:53:51;;;;;;;55.63;33.33;;;;;;;4.04;100.00;99933.41;1454543;89;21567;-77
2023/12/12 08:56:18;;;;;;;52.73;31.77;;;;;;;4.15;100.00;99932.59;1446100;90;21494;-78
2023/12/12 08:58:47;;;;;;;50.83;30.60;;;;;;;4.23;100.00;99936.73;1458466;89;21582;-78
2023/12/12 09:01:16;;;;;;;52.20;32.00;;;;;;;4.28;100.00;99939.83;1455053;89;22300;-77
2023/12/12 09:03:43;;;;;;;51.17;31.10;;;;;;;4.29;100.00;99936.28;1457254;89;21896;-78
2023/12/12 09:06:09;;;;;;;55.47;31.47;;;;;;;4.32;100.00;99932.59;1447003;90;21500;-78
2023/12/12 09:08:35;;;;;;;55.13;32.90;;;;;;;4.36;100.00;99930.91;1442597;89;21442;-77
2023/12/12 09:11:03;;;;;;;59.90;35.27;;;;;;;4.41;100.00;99937.94;1446577;89;21456;-78
2023/12/12 09:13:29;;;;;;;56.17;31.17;;;;;;;4.51;100.00;99939.34;1451511;89;21427;-77
2023/12/12 09:15:55;;;;;;;52.00;30.97;;;;;;;4.63;100.00;99947.58;1446403;89;21397;-77
2023/12/12 09:18:21;;;;;;;53.90;31.47;;;;;;;4.68;100.00;99953.75;1452037;89;21383;-78
2023/12/12 09:21:00;;;;;;;54.03;32.27;;;;;;;4.73;100.00;99958.16;1446882;90;21384;-78
2023/12/12 09:23:28;;;;;;;49.00;29.00;;;;;;;4.77;100.00;99953.02;1447099;89;21360;-79
2023/12/12 09:25:55;;;;;;;51.83;30.67;;;;;;;4.79;100.00;99957.66;1452097;89;21413;-76
2023/12/12 09:28:22;;;;;;;48.33;30.23;;;;;;;4.76;100.00;99948.73;1449429;89;21490;-76
2023/12/12 09:30:49;;;;;;;50.60;31.17;;;;;;;4.75;100.00;99939.21;1409896;89;21391;-76
2023/12/12 09:33:15;;;;;;;52.33;28.83;;;;;;;4.77;100.00;99938.59;1454285;89;22258;-76
2023/12/12 09:35:42;;;;;;;50.43;30.07;;;;;;;4.80;100.00;99931.79;1444202;89;21509;-76
2023/12/12 09:38:08;;;;;;;47.17;29.73;;;;;;;4.85;100.00;99932.75;1449218;90;21613;-76
2023/12/12 09:40:37;;;;;;;52.17;31.77;;;;;;;4.89;100.00;99932.84;1448352;90;21353;-76
2023/12/12 09:43:03;;;;;;;53.47;33.83;;;;;;;4.95;100.00;99924.02;1375798;89;21177;-77
2023/12/12 09:45:31;;;;;;;51.43;29.67;;;;;;;5.02;100.00;99924.84;1377925;89;22262;-77
2023/12/12 09:47:58;;;;;;;47.03;28.73;;;;;;;5.05;100.00;99921.48;1369346;90;21266;-76
2023/12/12 09:50:26;;;;;;;43.87;28.43;;;;;;;5.14;100.00;99918.09;1384994;90;21588;-76
2023/12/12 09:52:53;;;;;;;44.40;27.73;;;;;;;5.18;100.00;99918.70;1371115;90;21382;-77
2023/12/12 09:55:24;;;;;;;46.57;28.77;;;;;;;5.23;100.00;99920.45;1373614;90;22072;-75
2023/12/12 09:57:50;;;;;;;51.02;30.80;;;;;;;5.27;100.00;99927.13;1535701;90;21290;-76
2023/12/12 10:00:18;;;;;;;47.93;29.33;;;;;;;5.34;100.00;99932.70;1378958;90;21443;-76
2023/12/12 10:02:45;;;;;;;54.30;31.00;;;;;;;5.38;100.00;99924.91;1383180;90;21273;-77
2023/12/12 10:05:12;;;;;;;52.37;33.33;;;;;;;5.44;100.00;99934.93;1377184;90;21391;-76
2023/12/12 10:07:40;;;;;;;51.83;30.53;;;;;;;5.49;100.00;99929.28;1477839;90;22233;-76
2023/12/12 10:10:13;;;;;;;54.53;29.27;;;;;;;5.56;100.00;99930.45;1446496;90;21649;-76
2023/12/12 10:12:41;;;;;;;51.47;29.97;;;;;;;5.66;100.00;99941.84;1451945;89;21656;-76
2023/12/12 10:15:27;;;;;;;56.97;31.07;;;;;;;5.68;100.00;99932.05;1448724;89;21376;-76
2023/12/12 10:17:58;;;;;;;48.53;30.83;;;;;;;5.69;100.00;99936.33;1445221;89;21443;-77
2023/12/12 10:20:30;;;;;;;50.07;29.87;;;;;;;5.67;100.00;99933.02;1441281;90;21368;-77
2023/12/12 10:23:01;;;;;;;49.63;31.00;;;;;;;5.61;100.00;99925.63;1380718;89;21340;-77
2023/12/12 10:25:29;;;;;;;44.87;29.67;;;;;;;5.51;100.00;99924.75;1375458;89;21507;-77
2023/12/12 10:27:57;;;;;;;57.13;34.23;;;;;;;5.47;100.00;99919.38;1376610;89;21191;-77
2023/12/12 10:30:23;;;;;;;58.70;33.07;;;;;;;5.47;100.00;99911.51;1505426;90;21309;-77
2023/12/12 10:32:51;;;;;;;52.80;32.27;;;;;;;5.49;100.00;99916.16;1370745;90;22189;-77
2023/12/12 10:35:20;;;;;;;54.70;33.23;;;;;;;5.53;100.00;99918.90;1382612;89;21273;-77
2023/12/12 10:37:46;;;;;;;53.80;31.53;;;;;;;5.55;100.00;99928.77;1375650;90;21406;-77
2023/12/12 10:40:23;;;;;;;49.67;28.90;;;;;;;5.54;100.00;99924.48;1383964;89;21228;-77
2023/12/12 10:42:49;;;;;;;54.07;32.87;;;;;;;5.55;100.00;99931.39;1467261;90;21353;-77
2023/12/12 10:45:17;;;;;;;54.87;31.30;;;;;;;5.62;100.00;99943.06;1442065;90;21361;-77
2023/12/12 10:47:49;;;;;;;43.33;24.43;;;;;;;5.70;100.00;99942.41;1449540;90;22437;-76
2023/12/12 10:50:17;;;;;;;36.37;21.13;;;;;;;5.78;100.00;99940.84;1446928;89;21936;-77
2023/12/12 10:52:45;;;;;;;35.93;22.37;;;;;;;5.75;100.00;99942.38;1457581;89;21346;-77
2023/12/12 10:55:14;;;;;;;37.90;23.77;;;;;;;5.92;100.00;99931.77;1456308;89;22365;-77
2023/12/12 10:57:47;;;;;;;38.03;23.30;;;;;;;6.03;100.00;99932.21;1452633;88;22189;-73
2023/12/12 11:00:17;;;;;;;37.90;23.97;;;;;;;6.20;100.00;99927.66;1448075;90;21483;-73
2023/12/12 11:02:45;;;;;;;35.92;22.42;;;;;;;6.40;100.00;99928.57;1454859;89;21390;-73
2023/12/12 11:05:14;;;;;;;31.30;20.30;;;;;;;6.52;100.00;99925.36;1440721;90;21463;-74
2023/12/12 11:07:47;;;;;;;35.60;21.30;;;;;;;6.57;100.00;99927.11;1450851;89;21574;-74
2023/12/12 11:10:17;;;;;;;31.00;18.63;;;;;;;6.60;100.00;99932.10;1459229;88;21576;-74
2023/12/12 11:13:00;;;;;;;32.75;19.90;;;;;;;6.74;100.00;99925.14;1443113;90;21545;-75
2023/12/12 11:15:28;;;;;;;37.27;21.77;;;;;;;6.76;100.00;99926.31;1463600;89;21360;-77